aviador You're here:

UKDR Decoded Metar

KRIVYY RIH in UKRAINE
Report Time2017-09-24 12:00:00
UTC Time2017-09-24 12:10:34
Flight Rules vfr VFR
Wind120° at 12 kt
W.Decomp.*RWY 18: 5.3 kt HW 10.8 kt LCW
W.Rank120° ranks 30
Current wind is above 120° avg. (8.2)
Visibility9999 m
Phenomena:N/A
Clouds:N/A
Expected CloudBase > 3,600 ft AGL from Temp-Dew spread
CeilingNone
Temp20°C (ISA +6)
Dew Point11°C (56% RH)
AAT16.0°C
QNH1022 hPa
Density Alt961 ft
Elevation407 ft
Report Wrong Elevation
Raw Report
METAR UKDR 241200Z 12006MPS CAVOK 20/11 Q1022
R18/09//70 NOSIG=

Extra information for UKDR:More info

Metar Taf Metar & Taf Last 4 Metars F.Rules Stats Wind Profile Meteogram Temp Stats Airport Information Weather charts Add Link Nearby VenuesMetar ALERT Operation Metar Decoded Social comments